createdAt,value
2019-06-20T05:27:18.077Z,1.10
2019-06-20T05:29:47.684Z,0.80
2019-06-20T05:32:17.032Z,0.93
2019-06-20T06:09:26.108Z,1.90
2019-06-20T06:11:55.158Z,1.70
2019-06-20T06:14:24.605Z,1.62
2019-06-20T06:17:05.586Z,1.63
2019-06-20T06:19:34.957Z,1.40
2019-06-20T06:22:04.351Z,1.10
2019-06-20T06:24:33.419Z,1.50
2019-06-20T06:27:02.478Z,1.80
2019-06-20T06:29:31.842Z,1.80
2019-06-20T06:32:00.930Z,2.15
2019-06-20T06:34:30.697Z,1.80
2019-06-20T06:36:59.744Z,1.98
2019-06-20T06:39:28.712Z,1.60
2019-06-20T06:41:57.759Z,1.60
2019-06-20T06:44:26.824Z,1.60
2019-06-20T06:46:59.596Z,1.60
2019-06-20T06:49:26.964Z,1.50
2019-06-20T06:51:56.467Z,1.90
2019-06-20T06:54:25.774Z,1.80
2019-06-20T06:56:55.272Z,1.70
2019-06-20T06:59:24.236Z,1.60
2019-06-20T07:01:53.662Z,1.80
2019-06-20T07:04:22.964Z,1.65
2019-06-20T07:06:52.003Z,1.80
2019-06-20T07:09:21.048Z,1.80
2019-06-20T07:11:50.349Z,1.40
2019-06-20T07:14:19.654Z,1.42
2019-06-20T07:16:59.710Z,1.70
2019-06-20T07:19:19.865Z,1.50
2019-06-20T07:21:49.245Z,1.67
2019-06-20T07:24:18.284Z,1.55
2019-06-20T07:26:47.344Z,1.80
2019-06-20T07:29:16.368Z,1.40
2019-06-20T07:31:45.768Z,1.60
2019-06-20T07:34:14.820Z,1.90
2019-06-20T07:36:44.716Z,1.70
2019-06-20T07:39:14.015Z,2.03
2019-06-20T07:41:43.009Z,1.80
2019-06-20T07:44:12.390Z,1.40
2019-06-20T07:46:41.771Z,1.67
2019-06-20T07:49:11.087Z,1.70
2019-06-20T07:51:40.189Z,1.45
2019-06-20T07:54:09.250Z,1.30
2019-06-20T07:56:38.561Z,1.50
2019-06-20T07:59:07.901Z,1.80
2019-06-20T08:01:37.268Z,1.60
2019-06-20T08:04:06.582Z,1.70
2019-06-20T08:06:35.682Z,1.32
2019-06-20T08:09:23.870Z,1.75
2019-06-20T08:11:53.262Z,1.57
2019-06-20T08:14:22.617Z,1.87
2019-06-20T08:16:51.756Z,1.50
2019-06-20T08:19:20.926Z,1.30
2019-06-20T08:21:50.349Z,1.52
2019-06-20T08:24:19.781Z,1.90
2019-06-20T08:26:49.183Z,1.65
2019-06-20T08:29:21.102Z,1.40
2019-06-20T08:31:49.094Z,1.50
2019-06-20T08:34:18.177Z,1.30
2019-06-20T08:36:47.318Z,1.50
2019-06-20T08:39:16.412Z,1.40
2019-06-20T08:41:45.504Z,1.70
2019-06-20T08:44:14.714Z,1.80
2019-06-20T08:46:44.112Z,2.10
2019-06-20T08:49:13.825Z,1.60
2019-06-20T08:51:42.920Z,1.85
2019-06-20T08:54:12.319Z,1.60
2019-06-20T08:56:41.399Z,2.00
2019-06-20T09:02:39.166Z,1.50
2019-06-20T09:05:09.356Z,1.70
2019-06-20T09:07:41.665Z,1.10
2019-06-20T09:10:09.875Z,1.30
2019-06-20T09:12:38.992Z,1.80
2019-06-20T09:15:08.468Z,1.72
2019-06-20T09:17:37.914Z,1.33
2019-06-20T09:20:07.489Z,1.57
2019-06-20T09:22:36.653Z,1.70
2019-06-20T09:25:06.532Z,1.60
2019-06-20T09:27:35.902Z,1.60
2019-06-20T09:30:06.172Z,1.50
2019-06-20T09:32:35.288Z,1.40
2019-06-20T09:35:05.049Z,1.30
2019-06-20T09:37:34.155Z,1.10
2019-06-20T09:40:03.659Z,1.30
2019-06-20T09:42:32.965Z,1.62
2019-06-20T09:45:02.935Z,1.60
2019-06-20T09:47:32.487Z,1.55
2019-06-20T09:50:01.619Z,1.40
2019-06-20T09:52:30.720Z,1.80
2019-06-20T09:54:59.927Z,1.55
2019-06-20T09:57:29.259Z,1.60
2019-06-20T10:00:07.627Z,1.37
2019-06-20T10:02:29.432Z,1.50
2019-06-20T10:04:58.616Z,1.47
2019-06-20T10:07:27.706Z,1.30
2019-06-20T10:09:56.893Z,1.10
2019-06-20T10:12:26.006Z,1.40
2019-06-20T10:14:56.188Z,1.10
2019-06-20T10:17:25.656Z,1.20
2019-06-20T10:19:54.768Z,1.10
2019-06-20T10:22:23.841Z,1.22
2019-06-20T10:24:53.585Z,1.50
2019-06-20T10:27:22.827Z,1.30
2019-06-20T10:29:53.493Z,1.10
2019-06-20T10:32:22.964Z,1.20
2019-06-20T10:34:52.732Z,1.07
2019-06-20T10:37:21.960Z,1.20
2019-06-20T10:39:52.027Z,1.30
2019-06-20T10:42:21.709Z,1.20
2019-06-20T10:44:52.095Z,1.02
2019-06-20T10:47:32.372Z,1.32
2019-06-20T10:49:52.506Z,1.00
2019-06-20T10:52:21.605Z,0.95
2019-06-20T10:54:51.454Z,1.20
2019-06-20T10:57:20.687Z,1.30
2019-06-20T10:59:50.907Z,1.30
2019-06-20T11:02:20.655Z,1.50
2019-06-20T11:04:49.861Z,1.12
2019-06-20T11:07:18.964Z,1.10
2019-06-20T11:09:49.394Z,1.10
2019-06-20T11:12:18.647Z,1.30
2019-06-20T11:14:48.468Z,1.10
2019-06-20T11:17:17.679Z,1.20
2019-06-20T11:19:48.085Z,1.50
2019-06-20T11:22:17.334Z,1.30
2019-06-20T11:24:47.417Z,1.30
2019-06-20T11:27:16.660Z,1.30
2019-06-20T11:29:46.556Z,1.27
2019-06-20T11:32:16.098Z,1.22
2019-06-20T11:34:45.287Z,1.20
2019-06-20T11:37:14.413Z,0.90
2019-06-20T11:39:43.936Z,1.10
2019-06-20T11:42:13.045Z,1.20
2019-06-20T11:44:43.089Z,1.30
2019-06-20T11:47:12.392Z,1.20
2019-06-20T11:49:42.494Z,1.00
2019-06-20T11:52:11.789Z,1.00
2019-06-20T11:54:42.463Z,1.07
2019-06-20T11:57:11.655Z,1.20
2019-06-20T11:59:41.120Z,1.40
2019-06-20T12:02:10.287Z,1.10
2019-06-20T12:04:40.075Z,1.30
2019-06-20T12:07:10.656Z,1.10
2019-06-20T12:09:40.935Z,1.13
2019-06-20T12:12:10.230Z,1.40
2019-06-20T12:14:39.685Z,1.40
2019-06-20T12:17:10.676Z,1.40
2019-06-20T12:19:40.848Z,1.20
2019-06-20T12:22:10.064Z,1.30
2019-06-20T12:24:39.990Z,1.30
2019-06-20T12:27:10.280Z,1.20
2019-06-20T12:29:40.518Z,1.40
2019-06-20T12:32:10.127Z,1.30
2019-06-20T12:34:40.491Z,1.30
2019-06-20T12:37:10.055Z,1.02
2019-06-20T12:39:40.404Z,1.00
2019-06-20T12:42:09.688Z,1.20
2019-06-20T12:44:40.051Z,1.10
2019-06-20T12:47:09.331Z,1.30
2019-06-20T12:49:38.962Z,1.20
2019-06-20T12:52:09.230Z,1.40
2019-06-20T12:54:40.944Z,1.05
2019-06-20T12:57:09.768Z,1.30
2019-06-20T12:59:40.712Z,1.20
2019-06-20T13:02:09.883Z,1.00
2019-06-20T13:04:39.926Z,1.07
2019-06-20T13:07:09.227Z,0.98
2019-06-20T13:09:39.452Z,1.00
2019-06-20T13:12:09.145Z,1.00
2019-06-20T13:14:39.689Z,0.98
2019-06-20T13:17:09.263Z,0.90
2019-06-20T13:19:39.135Z,0.80
2019-06-20T13:22:09.743Z,0.90
2019-06-20T13:24:39.704Z,0.90
2019-06-20T13:27:09.925Z,0.98
2019-06-20T13:29:39.165Z,1.20
2019-06-20T13:32:09.065Z,0.80
2019-06-20T13:34:39.876Z,1.00
2019-06-20T13:37:09.974Z,0.90
2019-06-20T13:39:40.376Z,1.02
2019-06-20T13:42:10.208Z,1.10
2019-06-20T13:44:39.566Z,1.00
2019-06-20T13:47:10.124Z,0.90
2019-06-20T13:57:06.159Z,1.00
2019-06-20T13:59:35.244Z,0.90
2019-06-20T14:02:07.056Z,0.90
2019-06-20T14:34:14.799Z,0.90
2019-06-20T14:36:44.716Z,1.17
2019-06-20T14:39:14.990Z,1.10
2019-06-20T14:41:44.779Z,0.90
2019-06-20T14:44:13.959Z,0.80
2019-06-20T14:46:43.052Z,0.90
2019-06-20T14:49:12.434Z,0.87
2019-06-20T14:51:41.564Z,1.00
2019-06-20T14:54:10.923Z,0.80
2019-06-20T14:56:40.103Z,0.93
2019-06-20T14:59:09.250Z,1.00
2019-06-20T15:01:38.962Z,1.17
2019-06-20T15:04:08.108Z,1.63
2019-06-20T15:06:37.199Z,1.30
2019-06-20T15:09:08.214Z,1.10
2019-06-20T15:11:37.401Z,1.57
2019-06-20T15:14:06.507Z,1.00
2019-06-20T15:16:35.867Z,1.07
2019-06-20T15:19:05.692Z,0.90
2019-06-20T15:21:35.195Z,1.60
2019-06-20T15:24:04.364Z,1.50
2019-06-20T15:26:33.727Z,1.60
2019-06-20T15:29:06.050Z,1.50
2019-06-20T15:31:33.770Z,1.63
2019-06-20T15:34:02.979Z,1.60
2019-06-20T15:36:32.209Z,1.43
2019-06-20T15:39:01.574Z,1.03
2019-06-20T15:41:31.274Z,1.40
2019-06-20T15:44:00.372Z,1.40
2019-06-20T15:46:30.586Z,1.30
2019-06-20T15:49:03.675Z,1.70
2019-06-20T15:51:30.807Z,1.40
2019-06-20T15:54:00.021Z,1.53
2019-06-20T15:56:29.185Z,1.40
2019-06-20T15:58:58.602Z,1.60
2019-06-20T16:01:27.706Z,0.93
2019-06-20T16:03:56.836Z,1.40
2019-06-20T16:06:25.912Z,1.53
2019-06-20T16:08:55.023Z,1.27
2019-06-20T16:11:24.497Z,1.33
2019-06-20T16:13:53.595Z,1.17
2019-06-20T16:16:22.692Z,1.17
2019-06-20T16:18:52.426Z,1.03
2019-06-20T16:21:21.787Z,1.80
2019-06-20T16:23:50.895Z,1.27
2019-06-20T16:26:20.358Z,1.30
2019-06-20T16:28:49.499Z,1.07
2019-06-20T16:31:26.664Z,1.37
2019-06-20T16:33:49.951Z,2.07
2019-06-20T16:36:19.312Z,1.53
2019-06-20T16:38:48.407Z,1.73
2019-06-20T16:41:17.494Z,1.23
2019-06-20T16:43:46.592Z,1.83
2019-06-20T16:46:15.717Z,0.90
2019-06-20T16:48:45.119Z,1.20
2019-06-20T16:51:14.483Z,1.00
2019-06-20T16:53:43.588Z,1.10
2019-06-20T16:56:13.028Z,1.43
2019-06-20T16:58:42.491Z,0.93
2019-06-20T17:01:11.582Z,1.57
2019-06-20T17:03:42.017Z,1.27
2019-06-20T17:06:11.634Z,1.20
2019-06-20T17:08:40.752Z,0.97
2019-06-20T17:11:09.840Z,1.23
2019-06-20T17:13:39.619Z,1.30
2019-06-20T17:16:08.736Z,1.00
2019-06-20T17:18:38.110Z,1.20
2019-06-20T17:21:07.496Z,0.90
2019-06-20T17:23:36.859Z,1.10
2019-06-20T17:26:07.751Z,1.20
2019-06-20T17:28:37.170Z,1.30
2019-06-20T17:31:06.331Z,1.10
2019-06-20T17:33:35.508Z,1.00
2019-06-20T17:36:17.702Z,1.50
2019-06-20T17:38:36.108Z,1.23
2019-06-20T17:41:05.204Z,0.87
2019-06-20T17:43:34.679Z,1.10
2019-06-20T17:46:04.068Z,1.27
2019-06-20T17:48:33.236Z,1.13
2019-06-20T17:51:02.473Z,1.20
2019-06-20T17:53:31.980Z,1.03
2019-06-20T17:56:01.365Z,0.87
2019-06-20T17:58:30.750Z,1.10
2019-06-20T18:00:59.976Z,0.70
2019-06-20T18:03:29.395Z,0.80
2019-06-20T18:05:58.840Z,1.07
2019-06-20T18:08:27.945Z,1.00
2019-06-20T18:10:57.151Z,1.00
2019-06-20T18:13:26.591Z,1.10
2019-06-20T18:15:55.707Z,1.20
2019-06-20T18:18:24.820Z,1.10
2019-06-20T18:20:54.392Z,1.17
2019-06-20T18:23:23.724Z,1.00
2019-06-20T18:25:53.120Z,0.90
2019-06-20T18:28:22.274Z,0.90
2019-06-20T18:30:51.661Z,0.90
2019-06-20T18:33:21.029Z,1.20
2019-06-20T18:35:50.405Z,1.00
2019-06-20T18:38:19.759Z,1.00
2019-06-20T18:40:48.951Z,0.90
2019-06-20T18:45:46.479Z,1.20
2019-06-20T18:48:15.648Z,1.23
2019-06-20T18:50:45.035Z,1.10
2019-06-20T18:53:14.236Z,1.17
2019-06-20T18:55:43.643Z,1.10
2019-06-20T18:58:12.749Z,1.35
2019-06-20T19:00:42.192Z,1.00
2019-06-20T19:03:11.597Z,1.10
2019-06-20T19:05:40.696Z,1.10
2019-06-20T19:08:09.871Z,1.20
2019-06-20T19:10:38.985Z,1.10
2019-06-20T19:13:08.121Z,0.80
2019-06-20T19:15:37.532Z,1.00
2019-06-20T19:18:06.925Z,1.07
2019-06-20T19:20:36.029Z,0.98
2019-06-20T19:23:05.152Z,1.02
2019-06-20T19:25:34.318Z,0.87
2019-06-20T19:28:03.547Z,1.00
2019-06-20T19:30:46.527Z,1.30
2019-06-20T19:33:15.641Z,1.00
2019-06-20T19:35:45.057Z,0.80
2019-06-20T19:38:14.141Z,1.00
2019-06-20T19:40:46.749Z,1.33
2019-06-20T19:55:39.683Z,1.20
2019-06-20T19:58:09.283Z,1.20
2019-06-20T20:00:38.886Z,1.00
2019-06-20T20:03:08.051Z,1.43
2019-06-20T20:05:37.332Z,0.70
2019-06-20T20:08:07.086Z,1.10
2019-06-20T20:10:44.144Z,1.10
2019-06-20T20:13:15.328Z,1.10
2019-06-20T20:15:44.194Z,0.90
2019-06-20T20:18:14.021Z,1.20
2019-06-20T20:20:47.151Z,0.97
2019-06-20T20:23:14.295Z,1.13
2019-06-20T20:25:43.892Z,0.90
2019-06-20T20:28:13.261Z,1.20
2019-06-20T20:30:42.679Z,0.90
2019-06-20T20:33:12.085Z,1.40
2019-06-20T20:35:41.171Z,1.10
2019-06-20T20:38:10.283Z,1.37
2019-06-20T20:40:39.371Z,1.10
2019-06-20T20:43:08.464Z,1.50
2019-06-20T20:45:37.592Z,1.40
2019-06-20T20:48:06.743Z,1.45
2019-06-20T20:50:35.875Z,1.10
2019-06-20T20:53:05.081Z,1.00
2019-06-20T20:55:34.181Z,0.80
2019-06-20T20:58:03.305Z,0.90
2019-06-20T21:00:46.256Z,0.70
2019-06-20T21:03:15.362Z,0.80
2019-06-20T21:05:51.478Z,0.70
2019-06-20T21:08:15.387Z,0.70
2019-06-20T21:10:45.678Z,0.70
2019-06-20T21:13:15.393Z,0.70
2019-06-20T21:15:44.549Z,0.80
2019-06-20T21:18:13.889Z,0.62
2019-06-20T21:20:43.002Z,0.60
2019-06-20T21:23:12.194Z,0.68
2019-06-20T21:25:41.968Z,0.80
2019-06-20T22:02:50.785Z,0.70
2019-06-20T22:05:19.944Z,1.03
2019-06-20T22:07:49.145Z,0.70
2019-06-20T22:10:18.859Z,0.60
2019-06-20T22:12:48.462Z,0.60
2019-06-20T22:15:17.849Z,0.57
2019-06-20T22:17:46.971Z,0.80
2019-06-20T22:20:17.821Z,0.63
2019-06-20T22:22:46.923Z,0.60
2019-06-20T22:25:16.270Z,0.80
2019-06-20T22:27:45.383Z,0.60
2019-06-20T22:30:15.152Z,0.60
2019-06-20T22:35:12.433Z,0.70
2019-06-20T22:37:41.571Z,0.63
2019-06-20T22:40:11.796Z,0.57
2019-06-20T22:42:40.918Z,0.60
2019-06-20T22:45:10.747Z,0.80
2019-06-20T22:47:40.189Z,0.60
2019-06-20T22:50:10.973Z,0.60
2019-06-20T22:52:40.316Z,0.50
2019-06-20T22:55:09.424Z,0.50
2019-06-20T23:05:04.555Z,0.53
2019-06-20T23:07:33.632Z,0.70
2019-06-20T23:10:10.355Z,0.70
2019-06-20T23:12:33.548Z,0.77
2019-06-20T23:15:02.664Z,0.70
2019-06-20T23:17:31.765Z,0.90
2019-06-20T23:20:00.860Z,0.60
2019-06-20T23:22:30.211Z,0.60
2019-06-20T23:24:59.323Z,0.60
2019-06-20T23:27:28.728Z,0.53
2019-06-20T23:29:57.892Z,0.60
2019-06-20T23:32:27.419Z,0.70
2019-06-20T23:34:56.821Z,0.70
2019-06-20T23:37:25.897Z,0.60
2019-06-20T23:39:55.243Z,0.50
2019-06-20T23:42:24.333Z,0.80
2019-06-20T23:44:53.717Z,0.80
2019-06-20T23:47:22.811Z,0.70
2019-06-20T23:49:52.190Z,0.80
2019-06-20T23:52:24.058Z,0.60
2019-06-20T23:54:53.408Z,0.80
2019-06-20T23:57:22.487Z,0.60
2019-06-20T23:59:51.583Z,0.83
